sensor_id;sensor_type;location;lat;lon;timestamp;P1;durP1;ratioP1;P2;durP2;ratioP2
40533;SDS011;26233;51.894;10.192;2023-05-09T00:01:26;1.70;;;1.60;;
40533;SDS011;26233;51.894;10.192;2023-05-09T00:03:55;2.05;;;1.80;;
40533;SDS011;26233;51.894;10.192;2023-05-09T00:06:23;2.15;;;1.95;;
40533;SDS011;26233;51.894;10.192;2023-05-09T00:08:51;1.92;;;1.52;;
40533;SDS011;26233;51.894;10.192;2023-05-09T00:11:18;1.70;;;1.60;;
40533;SDS011;26233;51.894;10.192;2023-05-09T00:13:47;2.00;;;1.80;;
40533;SDS011;26233;51.894;10.192;2023-05-09T00:16:14;1.83;;;1.73;;
40533;SDS011;26233;51.894;10.192;2023-05-09T00:18:42;1.90;;;1.70;;
40533;SDS011;26233;51.894;10.192;2023-05-09T00:21:10;1.73;;;1.63;;
40533;SDS011;26233;51.894;10.192;2023-05-09T00:23:37;2.63;;;1.70;;
40533;SDS011;26233;51.894;10.192;2023-05-09T00:26:07;2.55;;;1.88;;
40533;SDS011;26233;51.894;10.192;2023-05-09T00:28:35;3.05;;;1.60;;
40533;SDS011;26233;51.894;10.192;2023-05-09T00:31:03;1.85;;;1.75;;
40533;SDS011;26233;51.894;10.192;2023-05-09T00:33:30;1.80;;;1.70;;
40533;SDS011;26233;51.894;10.192;2023-05-09T00:35:57;2.00;;;1.90;;
40533;SDS011;26233;51.894;10.192;2023-05-09T00:38:24;2.38;;;1.65;;
40533;SDS011;26233;51.894;10.192;2023-05-09T00:40:52;1.92;;;1.70;;
40533;SDS011;26233;51.894;10.192;2023-05-09T00:43:19;1.98;;;1.77;;
40533;SDS011;26233;51.894;10.192;2023-05-09T00:45:46;2.10;;;1.77;;
40533;SDS011;26233;51.894;10.192;2023-05-09T00:48:17;1.90;;;1.80;;
40533;SDS011;26233;51.894;10.192;2023-05-09T00:50:44;2.00;;;1.90;;
40533;SDS011;26233;51.894;10.192;2023-05-09T00:53:16;2.10;;;1.80;;
40533;SDS011;26233;51.894;10.192;2023-05-09T00:55:43;1.92;;;1.80;;
40533;SDS011;26233;51.894;10.192;2023-05-09T00:58:11;2.00;;;1.80;;
40533;SDS011;26233;51.894;10.192;2023-05-09T01:00:39;1.90;;;1.80;;
40533;SDS011;26233;51.894;10.192;2023-05-09T01:03:07;1.92;;;1.83;;
40533;SDS011;26233;51.894;10.192;2023-05-09T01:05:37;2.20;;;2.00;;
40533;SDS011;26233;51.894;10.192;2023-05-09T01:08:15;1.83;;;1.73;;
40533;SDS011;26233;51.894;10.192;2023-05-09T01:10:57;2.42;;;1.75;;
40533;SDS011;26233;51.894;10.192;2023-05-09T01:13:34;1.80;;;1.70;;
40533;SDS011;26233;51.894;10.192;2023-05-09T01:16:17;1.83;;;1.73;;
40533;SDS011;26233;51.894;10.192;2023-05-09T01:18:51;2.60;;;1.77;;
40533;SDS011;26233;51.894;10.192;2023-05-09T01:21:28;1.90;;;1.80;;
40533;SDS011;26233;51.894;10.192;2023-05-09T01:24:13;1.92;;;1.80;;
40533;SDS011;26233;51.894;10.192;2023-05-09T01:27:02;2.78;;;1.80;;
40533;SDS011;26233;51.894;10.192;2023-05-09T01:29:47;1.92;;;1.80;;
40533;SDS011;26233;51.894;10.192;2023-05-09T01:32:18;2.22;;;2.03;;
40533;SDS011;26233;51.894;10.192;2023-05-09T01:34:50;3.13;;;2.00;;
40533;SDS011;26233;51.894;10.192;2023-05-09T01:37:21;1.98;;;1.88;;
40533;SDS011;26233;51.894;10.192;2023-05-09T01:39:56;2.58;;;2.38;;
40533;SDS011;26233;51.894;10.192;2023-05-09T01:42:34;2.30;;;2.10;;
40533;SDS011;26233;51.894;10.192;2023-05-09T01:45:07;2.50;;;2.30;;
40533;SDS011;26233;51.894;10.192;2023-05-09T01:47:37;1.98;;;1.88;;
40533;SDS011;26233;51.894;10.192;2023-05-09T01:50:06;2.30;;;2.10;;
40533;SDS011;26233;51.894;10.192;2023-05-09T01:52:36;2.53;;;2.33;;
40533;SDS011;26233;51.894;10.192;2023-05-09T01:55:05;3.80;;;2.17;;
40533;SDS011;26233;51.894;10.192;2023-05-09T01:57:34;2.13;;;2.03;;
40533;SDS011;26233;51.894;10.192;2023-05-09T02:00:02;2.30;;;2.10;;
40533;SDS011;26233;51.894;10.192;2023-05-09T02:02:33;2.30;;;2.10;;
40533;SDS011;26233;51.894;10.192;2023-05-09T02:05:01;2.42;;;2.22;;
40533;SDS011;26233;51.894;10.192;2023-05-09T02:07:29;2.67;;;2.10;;
40533;SDS011;26233;51.894;10.192;2023-05-09T02:09:57;2.08;;;1.98;;
40533;SDS011;26233;51.894;10.192;2023-05-09T02:12:26;2.35;;;2.15;;
40533;SDS011;26233;51.894;10.192;2023-05-09T02:14:53;2.08;;;1.98;;
40533;SDS011;26233;51.894;10.192;2023-05-09T02:17:20;2.28;;;2.08;;
40533;SDS011;26233;51.894;10.192;2023-05-09T02:19:48;2.33;;;2.20;;
40533;SDS011;26233;51.894;10.192;2023-05-09T02:22:15;2.28;;;2.10;;
40533;SDS011;26233;51.894;10.192;2023-05-09T02:24:42;2.50;;;2.30;;
40533;SDS011;26233;51.894;10.192;2023-05-09T02:27:10;2.58;;;2.30;;
40533;SDS011;26233;51.894;10.192;2023-05-09T02:29:43;2.45;;;2.25;;
40533;SDS011;26233;51.894;10.192;2023-05-09T02:32:14;2.38;;;2.17;;
40533;SDS011;26233;51.894;10.192;2023-05-09T02:34:44;2.50;;;2.30;;
40533;SDS011;26233;51.894;10.192;2023-05-09T02:37:13;2.28;;;2.17;;
40533;SDS011;26233;51.894;10.192;2023-05-09T02:39:41;2.25;;;2.15;;
40533;SDS011;26233;51.894;10.192;2023-05-09T02:42:10;2.50;;;2.30;;
40533;SDS011;26233;51.894;10.192;2023-05-09T02:44:39;2.70;;;2.50;;
40533;SDS011;26233;51.894;10.192;2023-05-09T02:47:06;2.53;;;2.20;;
40533;SDS011;26233;51.894;10.192;2023-05-09T02:49:33;2.45;;;2.25;;
40533;SDS011;26233;51.894;10.192;2023-05-09T02:52:00;3.15;;;2.33;;
40533;SDS011;26233;51.894;10.192;2023-05-09T02:54:29;2.55;;;2.28;;
40533;SDS011;26233;51.894;10.192;2023-05-09T02:56:56;2.50;;;2.30;;
40533;SDS011;26233;51.894;10.192;2023-05-09T02:59:24;2.65;;;2.45;;
40533;SDS011;26233;51.894;10.192;2023-05-09T03:01:52;2.60;;;2.40;;
40533;SDS011;26233;51.894;10.192;2023-05-09T03:04:19;2.67;;;2.47;;
40533;SDS011;26233;51.894;10.192;2023-05-09T03:06:46;2.55;;;2.38;;
40533;SDS011;26233;51.894;10.192;2023-05-09T03:09:13;2.50;;;2.30;;
40533;SDS011;26233;51.894;10.192;2023-05-09T03:11:42;2.60;;;2.40;;
40533;SDS011;26233;51.894;10.192;2023-05-09T03:14:09;2.80;;;2.60;;
40533;SDS011;26233;51.894;10.192;2023-05-09T03:16:37;2.50;;;2.30;;
40533;SDS011;26233;51.894;10.192;2023-05-09T03:19:04;2.50;;;2.30;;
40533;SDS011;26233;51.894;10.192;2023-05-09T03:21:31;2.80;;;2.60;;
40533;SDS011;26233;51.894;10.192;2023-05-09T03:23:58;2.47;;;2.35;;
40533;SDS011;26233;51.894;10.192;2023-05-09T03:26:25;2.50;;;2.30;;
40533;SDS011;26233;51.894;10.192;2023-05-09T03:28:53;2.60;;;2.40;;
40533;SDS011;26233;51.894;10.192;2023-05-09T03:31:20;2.80;;;2.60;;
40533;SDS011;26233;51.894;10.192;2023-05-09T03:33:47;2.80;;;2.60;;
40533;SDS011;26233;51.894;10.192;2023-05-09T03:36:15;2.72;;;2.50;;
40533;SDS011;26233;51.894;10.192;2023-05-09T03:38:42;2.85;;;2.65;;
40533;SDS011;26233;51.894;10.192;2023-05-09T03:41:09;2.47;;;2.30;;
40533;SDS011;26233;51.894;10.192;2023-05-09T03:43:38;2.42;;;2.22;;
40533;SDS011;26233;51.894;10.192;2023-05-09T03:46:06;2.65;;;2.45;;
40533;SDS011;26233;51.894;10.192;2023-05-09T03:48:33;2.70;;;2.50;;
40533;SDS011;26233;51.894;10.192;2023-05-09T03:51:00;2.70;;;2.50;;
40533;SDS011;26233;51.894;10.192;2023-05-09T03:53:28;2.88;;;2.63;;
40533;SDS011;26233;51.894;10.192;2023-05-09T03:55:55;2.85;;;2.65;;
40533;SDS011;26233;51.894;10.192;2023-05-09T03:58:22;2.63;;;2.42;;
40533;SDS011;26233;51.894;10.192;2023-05-09T04:00:49;2.88;;;2.67;;
40533;SDS011;26233;51.894;10.192;2023-05-09T04:03:17;3.03;;;2.83;;
40533;SDS011;26233;51.894;10.192;2023-05-09T04:05:44;2.72;;;2.53;;
40533;SDS011;26233;51.894;10.192;2023-05-09T04:08:11;3.08;;;2.75;;
40533;SDS011;26233;51.894;10.192;2023-05-09T04:10:39;2.78;;;2.55;;
40533;SDS011;26233;51.894;10.192;2023-05-09T04:13:06;2.95;;;2.67;;
40533;SDS011;26233;51.894;10.192;2023-05-09T04:15:35;2.55;;;2.35;;
40533;SDS011;26233;51.894;10.192;2023-05-09T04:18:02;2.85;;;2.65;;
40533;SDS011;26233;51.894;10.192;2023-05-09T04:20:31;2.45;;;2.25;;
40533;SDS011;26233;51.894;10.192;2023-05-09T04:22:58;2.38;;;2.28;;
40533;SDS011;26233;51.894;10.192;2023-05-09T04:25:25;2.50;;;2.30;;
40533;SDS011;26233;51.894;10.192;2023-05-09T04:27:53;2.35;;;2.25;;
40533;SDS011;26233;51.894;10.192;2023-05-09T04:30:21;2.53;;;2.33;;
40533;SDS011;26233;51.894;10.192;2023-05-09T04:32:51;2.70;;;2.47;;
40533;SDS011;26233;51.894;10.192;2023-05-09T04:35:19;2.25;;;2.13;;
40533;SDS011;26233;51.894;10.192;2023-05-09T04:37:48;2.63;;;2.42;;
40533;SDS011;26233;51.894;10.192;2023-05-09T04:40:15;2.60;;;2.40;;
40533;SDS011;26233;51.894;10.192;2023-05-09T04:42:42;2.80;;;2.60;;
40533;SDS011;26233;51.894;10.192;2023-05-09T04:45:10;2.53;;;2.33;;
40533;SDS011;26233;51.894;10.192;2023-05-09T04:47:37;2.53;;;2.33;;
40533;SDS011;26233;51.894;10.192;2023-05-09T04:50:05;2.38;;;2.17;;
40533;SDS011;26233;51.894;10.192;2023-05-09T04:52:33;2.35;;;2.15;;
40533;SDS011;26233;51.894;10.192;2023-05-09T04:55:01;2.42;;;2.22;;
40533;SDS011;26233;51.894;10.192;2023-05-09T04:57:28;2.85;;;2.65;;
40533;SDS011;26233;51.894;10.192;2023-05-09T04:59:55;2.50;;;2.30;;
40533;SDS011;26233;51.894;10.192;2023-05-09T05:02:22;2.70;;;2.50;;
40533;SDS011;26233;51.894;10.192;2023-05-09T05:04:50;2.50;;;2.30;;
40533;SDS011;26233;51.894;10.192;2023-05-09T05:07:17;2.55;;;2.35;;
40533;SDS011;26233;51.894;10.192;2023-05-09T05:09:44;2.60;;;2.40;;
40533;SDS011;26233;51.894;10.192;2023-05-09T05:12:12;2.70;;;2.28;;
40533;SDS011;26233;51.894;10.192;2023-05-09T05:14:39;2.40;;;2.17;;
40533;SDS011;26233;51.894;10.192;2023-05-09T05:17:06;2.53;;;2.33;;
40533;SDS011;26233;51.894;10.192;2023-05-09T05:19:33;2.78;;;2.58;;
40533;SDS011;26233;51.894;10.192;2023-05-09T05:22:00;2.58;;;2.38;;
40533;SDS011;26233;51.894;10.192;2023-05-09T05:24:28;3.20;;;2.55;;
40533;SDS011;26233;51.894;10.192;2023-05-09T05:26:55;2.42;;;2.28;;
40533;SDS011;26233;51.894;10.192;2023-05-09T05:29:23;2.65;;;2.45;;
40533;SDS011;26233;51.894;10.192;2023-05-09T05:31:50;3.35;;;2.50;;
40533;SDS011;26233;51.894;10.192;2023-05-09T05:34:17;3.03;;;2.83;;
40533;SDS011;26233;51.894;10.192;2023-05-09T05:36:44;2.50;;;2.30;;
40533;SDS011;26233;51.894;10.192;2023-05-09T05:39:11;2.65;;;2.45;;
40533;SDS011;26233;51.894;10.192;2023-05-09T05:41:38;2.50;;;2.30;;
40533;SDS011;26233;51.894;10.192;2023-05-09T05:44:05;2.72;;;2.53;;
40533;SDS011;26233;51.894;10.192;2023-05-09T05:46:34;2.97;;;2.78;;
40533;SDS011;26233;51.894;10.192;2023-05-09T05:49:01;2.55;;;2.35;;
40533;SDS011;26233;51.894;10.192;2023-05-09T05:51:28;2.85;;;2.65;;
40533;SDS011;26233;51.894;10.192;2023-05-09T05:53:55;3.30;;;3.00;;
40533;SDS011;26233;51.894;10.192;2023-05-09T05:56:22;4.32;;;3.92;;
40533;SDS011;26233;51.894;10.192;2023-05-09T05:58:49;3.67;;;3.38;;
40533;SDS011;26233;51.894;10.192;2023-05-09T06:01:16;3.50;;;3.20;;
40533;SDS011;26233;51.894;10.192;2023-05-09T06:03:44;3.63;;;3.33;;
40533;SDS011;26233;51.894;10.192;2023-05-09T06:06:12;3.30;;;3.00;;
40533;SDS011;26233;51.894;10.192;2023-05-09T06:08:39;3.60;;;3.30;;
40533;SDS011;26233;51.894;10.192;2023-05-09T06:11:06;5.20;;;2.92;;
40533;SDS011;26233;51.894;10.192;2023-05-09T06:13:33;3.25;;;2.95;;
40533;SDS011;26233;51.894;10.192;2023-05-09T06:16:00;2.95;;;2.75;;
40533;SDS011;26233;51.894;10.192;2023-05-09T06:18:27;3.35;;;2.72;;
40533;SDS011;26233;51.894;10.192;2023-05-09T06:20:56;2.90;;;2.60;;
40533;SDS011;26233;51.894;10.192;2023-05-09T06:23:23;2.72;;;2.53;;
40533;SDS011;26233;51.894;10.192;2023-05-09T06:25:50;2.35;;;2.20;;
40533;SDS011;26233;51.894;10.192;2023-05-09T06:28:17;2.60;;;2.40;;
40533;SDS011;26233;51.894;10.192;2023-05-09T06:30:44;2.60;;;2.40;;
40533;SDS011;26233;51.894;10.192;2023-05-09T06:33:11;2.53;;;2.33;;
40533;SDS011;26233;51.894;10.192;2023-05-09T06:35:38;2.70;;;2.50;;
40533;SDS011;26233;51.894;10.192;2023-05-09T06:38:06;4.43;;;2.30;;
40533;SDS011;26233;51.894;10.192;2023-05-09T06:40:33;4.22;;;2.72;;
40533;SDS011;26233;51.894;10.192;2023-05-09T06:43:01;2.90;;;2.70;;
40533;SDS011;26233;51.894;10.192;2023-05-09T06:45:28;2.90;;;2.70;;
40533;SDS011;26233;51.894;10.192;2023-05-09T06:47:55;2.70;;;2.50;;
40533;SDS011;26233;51.894;10.192;2023-05-09T06:50:22;3.13;;;2.92;;
40533;SDS011;26233;51.894;10.192;2023-05-09T06:52:49;3.53;;;3.22;;
40533;SDS011;26233;51.894;10.192;2023-05-09T06:55:17;3.28;;;3.00;;
40533;SDS011;26233;51.894;10.192;2023-05-09T06:57:45;3.30;;;3.00;;
40533;SDS011;26233;51.894;10.192;2023-05-09T07:00:12;3.53;;;3.08;;
40533;SDS011;26233;51.894;10.192;2023-05-09T07:02:41;3.63;;;2.90;;
40533;SDS011;26233;51.894;10.192;2023-05-09T07:05:08;3.30;;;3.00;;
40533;SDS011;26233;51.894;10.192;2023-05-09T07:07:35;2.90;;;2.60;;
40533;SDS011;26233;51.894;10.192;2023-05-09T07:10:03;2.70;;;2.50;;
40533;SDS011;26233;51.894;10.192;2023-05-09T07:12:32;3.03;;;2.72;;
40533;SDS011;26233;51.894;10.192;2023-05-09T07:14:59;2.83;;;2.50;;
40533;SDS011;26233;51.894;10.192;2023-05-09T07:17:29;2.88;;;2.67;;
40533;SDS011;26233;51.894;10.192;2023-05-09T07:19:56;2.35;;;2.15;;
40533;SDS011;26233;51.894;10.192;2023-05-09T07:22:23;2.88;;;2.30;;
40533;SDS011;26233;51.894;10.192;2023-05-09T07:24:50;2.97;;;2.47;;
40533;SDS011;26233;51.894;10.192;2023-05-09T07:27:17;3.10;;;2.47;;
40533;SDS011;26233;51.894;10.192;2023-05-09T07:29:46;2.78;;;2.30;;
40533;SDS011;26233;51.894;10.192;2023-05-09T07:32:16;2.83;;;2.63;;
40533;SDS011;26233;51.894;10.192;2023-05-09T07:34:43;4.32;;;3.00;;
40533;SDS011;26233;51.894;10.192;2023-05-09T07:37:10;4.20;;;2.97;;
40533;SDS011;26233;51.894;10.192;2023-05-09T07:39:37;4.47;;;3.00;;
40533;SDS011;26233;51.894;10.192;2023-05-09T07:42:04;3.30;;;3.00;;
40533;SDS011;26233;51.894;10.192;2023-05-09T07:44:32;3.00;;;2.80;;
40533;SDS011;26233;51.894;10.192;2023-05-09T07:47:01;2.95;;;2.75;;
40533;SDS011;26233;51.894;10.192;2023-05-09T07:49:29;2.80;;;2.60;;
40533;SDS011;26233;51.894;10.192;2023-05-09T07:51:56;2.70;;;2.50;;
40533;SDS011;26233;51.894;10.192;2023-05-09T07:54:23;4.03;;;2.60;;
40533;SDS011;26233;51.894;10.192;2023-05-09T07:56:50;3.15;;;2.95;;
40533;SDS011;26233;51.894;10.192;2023-05-09T07:59:18;2.78;;;2.58;;
40533;SDS011;26233;51.894;10.192;2023-05-09T08:01:45;2.92;;;2.60;;
40533;SDS011;26233;51.894;10.192;2023-05-09T08:04:14;2.80;;;2.58;;
40533;SDS011;26233;51.894;10.192;2023-05-09T08:06:41;2.80;;;2.55;;
40533;SDS011;26233;51.894;10.192;2023-05-09T08:09:08;3.03;;;2.80;;
40533;SDS011;26233;51.894;10.192;2023-05-09T08:11:35;2.35;;;2.25;;
40533;SDS011;26233;51.894;10.192;2023-05-09T08:14:02;2.45;;;2.33;;
40533;SDS011;26233;51.894;10.192;2023-05-09T08:16:29;2.88;;;2.67;;
40533;SDS011;26233;51.894;10.192;2023-05-09T08:18:56;3.13;;;2.92;;
40533;SDS011;26233;51.894;10.192;2023-05-09T08:21:25;3.15;;;2.90;;
40533;SDS011;26233;51.894;10.192;2023-05-09T08:23:52;3.17;;;2.83;;
40533;SDS011;26233;51.894;10.192;2023-05-09T08:26:19;3.00;;;2.80;;
40533;SDS011;26233;51.894;10.192;2023-05-09T08:28:47;3.13;;;2.88;;
40533;SDS011;26233;51.894;10.192;2023-05-09T08:31:14;3.13;;;2.92;;
40533;SDS011;26233;51.894;10.192;2023-05-09T08:33:41;3.30;;;3.10;;
40533;SDS011;26233;51.894;10.192;2023-05-09T08:36:08;3.00;;;2.80;;
40533;SDS011;26233;51.894;10.192;2023-05-09T08:38:37;2.95;;;2.75;;
40533;SDS011;26233;51.894;10.192;2023-05-09T08:41:04;3.10;;;2.90;;
40533;SDS011;26233;51.894;10.192;2023-05-09T08:43:32;3.38;;;3.00;;
40533;SDS011;26233;51.894;10.192;2023-05-09T08:46:00;3.55;;;3.35;;
40533;SDS011;26233;51.894;10.192;2023-05-09T08:48:33;3.22;;;3.03;;
40533;SDS011;26233;51.894;10.192;2023-05-09T08:51:02;3.60;;;3.30;;
40533;SDS011;26233;51.894;10.192;2023-05-09T08:53:30;3.55;;;3.08;;
40533;SDS011;26233;51.894;10.192;2023-05-09T08:55:59;3.40;;;3.20;;
40533;SDS011;26233;51.894;10.192;2023-05-09T08:58:26;3.40;;;3.17;;
40533;SDS011;26233;51.894;10.192;2023-05-09T09:00:54;3.40;;;3.20;;
40533;SDS011;26233;51.894;10.192;2023-05-09T09:03:22;3.70;;;3.47;;
40533;SDS011;26233;51.894;10.192;2023-05-09T09:05:50;3.83;;;3.50;;
40533;SDS011;26233;51.894;10.192;2023-05-09T09:08:19;3.75;;;3.45;;
40533;SDS011;26233;51.894;10.192;2023-05-09T09:10:47;3.33;;;3.13;;
40533;SDS011;26233;51.894;10.192;2023-05-09T09:13:16;4.00;;;3.70;;
40533;SDS011;26233;51.894;10.192;2023-05-09T09:15:44;3.35;;;3.15;;
40533;SDS011;26233;51.894;10.192;2023-05-09T09:18:15;3.13;;;2.92;;
40533;SDS011;26233;51.894;10.192;2023-05-09T09:20:49;3.45;;;3.25;;
40533;SDS011;26233;51.894;10.192;2023-05-09T09:23:23;3.45;;;3.25;;
40533;SDS011;26233;51.894;10.192;2023-05-09T09:25:56;3.03;;;2.83;;
40533;SDS011;26233;51.894;10.192;2023-05-09T09:28:25;3.83;;;3.53;;
40533;SDS011;26233;51.894;10.192;2023-05-09T09:30:52;3.70;;;3.40;;
40533;SDS011;26233;51.894;10.192;2023-05-09T09:33:20;3.50;;;3.20;;
40533;SDS011;26233;51.894;10.192;2023-05-09T09:35:48;3.63;;;3.42;;
40533;SDS011;26233;51.894;10.192;2023-05-09T09:38:16;3.78;;;3.47;;
40533;SDS011;26233;51.894;10.192;2023-05-09T09:40:47;3.22;;;2.90;;
40533;SDS011;26233;51.894;10.192;2023-05-09T09:43:18;3.42;;;3.13;;
40533;SDS011;26233;51.894;10.192;2023-05-09T09:45:48;3.25;;;3.05;;
40533;SDS011;26233;51.894;10.192;2023-05-09T09:48:16;3.53;;;3.22;;
40533;SDS011;26233;51.894;10.192;2023-05-09T09:50:43;3.05;;;2.85;;
40533;SDS011;26233;51.894;10.192;2023-05-09T09:53:13;3.58;;;3.28;;
40533;SDS011;26233;51.894;10.192;2023-05-09T09:55:47;3.42;;;3.22;;
40533;SDS011;26233;51.894;10.192;2023-05-09T09:58:16;3.17;;;2.97;;
40533;SDS011;26233;51.894;10.192;2023-05-09T10:00:46;3.08;;;2.88;;
40533;SDS011;26233;51.894;10.192;2023-05-09T10:03:15;3.20;;;3.00;;
40533;SDS011;26233;51.894;10.192;2023-05-09T10:05:42;3.80;;;2.90;;
40533;SDS011;26233;51.894;10.192;2023-05-09T10:08:10;3.22;;;3.03;;
40533;SDS011;26233;51.894;10.192;2023-05-09T10:10:37;3.10;;;2.90;;
40533;SDS011;26233;51.894;10.192;2023-05-09T10:13:06;3.50;;;3.30;;
40533;SDS011;26233;51.894;10.192;2023-05-09T10:15:36;3.42;;;3.22;;
40533;SDS011;26233;51.894;10.192;2023-05-09T10:18:03;3.33;;;3.05;;
40533;SDS011;26233;51.894;10.192;2023-05-09T10:20:33;4.72;;;3.30;;
40533;SDS011;26233;51.894;10.192;2023-05-09T10:23:03;3.25;;;3.05;;
40533;SDS011;26233;51.894;10.192;2023-05-09T10:25:36;2.78;;;2.65;;
40533;SDS011;26233;51.894;10.192;2023-05-09T10:28:06;3.20;;;3.00;;
40533;SDS011;26233;51.894;10.192;2023-05-09T10:30:40;3.00;;;2.80;;
40533;SDS011;26233;51.894;10.192;2023-05-09T10:33:19;3.22;;;3.03;;
40533;SDS011;26233;51.894;10.192;2023-05-09T10:35:54;2.92;;;2.72;;
40533;SDS011;26233;51.894;10.192;2023-05-09T10:38:23;2.80;;;2.60;;
40533;SDS011;26233;51.894;10.192;2023-05-09T10:40:50;2.88;;;2.67;;
40533;SDS011;26233;51.894;10.192;2023-05-09T10:43:19;2.72;;;2.53;;
40533;SDS011;26233;51.894;10.192;2023-05-09T10:45:48;3.85;;;3.00;;
40533;SDS011;26233;51.894;10.192;2023-05-09T10:48:15;3.65;;;2.92;;
40533;SDS011;26233;51.894;10.192;2023-05-09T10:50:45;4.20;;;3.08;;
40533;SDS011;26233;51.894;10.192;2023-05-09T10:53:14;3.08;;;2.83;;
40533;SDS011;26233;51.894;10.192;2023-05-09T10:55:49;3.13;;;2.88;;
40533;SDS011;26233;51.894;10.192;2023-05-09T10:58:20;3.60;;;2.70;;
40533;SDS011;26233;51.894;10.192;2023-05-09T11:00:50;3.15;;;2.95;;
40533;SDS011;26233;51.894;10.192;2023-05-09T11:03:20;2.65;;;2.45;;
40533;SDS011;26233;51.894;10.192;2023-05-09T11:05:49;3.58;;;3.28;;
40533;SDS011;26233;51.894;10.192;2023-05-09T11:08:19;3.22;;;3.03;;
40533;SDS011;26233;51.894;10.192;2023-05-09T11:10:49;3.13;;;2.92;;
40533;SDS011;26233;51.894;10.192;2023-05-09T11:13:17;3.20;;;3.00;;
40533;SDS011;26233;51.894;10.192;2023-05-09T11:18:47;3.25;;;3.05;;
40533;SDS011;26233;51.894;10.192;2023-05-09T11:21:18;3.50;;;3.20;;
40533;SDS011;26233;51.894;10.192;2023-05-09T11:23:48;3.50;;;3.20;;
40533;SDS011;26233;51.894;10.192;2023-05-09T11:26:16;3.60;;;3.30;;
40533;SDS011;26233;51.894;10.192;2023-05-09T11:28:52;3.50;;;3.30;;
40533;SDS011;26233;51.894;10.192;2023-05-09T11:31:20;3.22;;;3.03;;
40533;SDS011;26233;51.894;10.192;2023-05-09T11:33:48;3.80;;;3.50;;
40533;SDS011;26233;51.894;10.192;2023-05-09T11:36:26;4.07;;;3.65;;
40533;SDS011;26233;51.894;10.192;2023-05-09T11:39:08;3.35;;;3.08;;
40533;SDS011;26233;51.894;10.192;2023-05-09T11:41:38;3.30;;;2.97;;
40533;SDS011;26233;51.894;10.192;2023-05-09T11:44:13;3.35;;;3.05;;
40533;SDS011;26233;51.894;10.192;2023-05-09T11:46:42;3.35;;;3.15;;
40533;SDS011;26233;51.894;10.192;2023-05-09T11:49:09;3.38;;;3.17;;
40533;SDS011;26233;51.894;10.192;2023-05-09T11:51:36;3.80;;;3.50;;
40533;SDS011;26233;51.894;10.192;2023-05-09T11:54:04;3.63;;;3.33;;
40533;SDS011;26233;51.894;10.192;2023-05-09T11:56:34;3.28;;;3.08;;
40533;SDS011;26233;51.894;10.192;2023-05-09T11:59:05;3.33;;;3.10;;
40533;SDS011;26233;51.894;10.192;2023-05-09T12:01:34;4.53;;;3.55;;
40533;SDS011;26233;51.894;10.192;2023-05-09T12:04:02;3.13;;;2.92;;
40533;SDS011;26233;51.894;10.192;2023-05-09T12:06:31;3.92;;;3.30;;
40533;SDS011;26233;51.894;10.192;2023-05-09T12:08:59;3.58;;;3.30;;
40533;SDS011;26233;51.894;10.192;2023-05-09T12:11:27;3.78;;;3.47;;
40533;SDS011;26233;51.894;10.192;2023-05-09T12:13:57;3.28;;;3.08;;
40533;SDS011;26233;51.894;10.192;2023-05-09T12:16:24;3.17;;;2.97;;
40533;SDS011;26233;51.894;10.192;2023-05-09T12:18:51;3.97;;;3.67;;
40533;SDS011;26233;51.894;10.192;2023-05-09T12:21:19;4.38;;;4.00;;
40533;SDS011;26233;51.894;10.192;2023-05-09T12:23:46;4.00;;;3.70;;
40533;SDS011;26233;51.894;10.192;2023-05-09T12:26:14;3.25;;;3.05;;
40533;SDS011;26233;51.894;10.192;2023-05-09T12:28:41;3.75;;;3.47;;
40533;SDS011;26233;51.894;10.192;2023-05-09T12:31:10;3.78;;;3.50;;
40533;SDS011;26233;51.894;10.192;2023-05-09T12:33:37;3.58;;;3.28;;
40533;SDS011;26233;51.894;10.192;2023-05-09T12:36:06;3.95;;;3.65;;
40533;SDS011;26233;51.894;10.192;2023-05-09T12:38:35;3.67;;;3.38;;
40533;SDS011;26233;51.894;10.192;2023-05-09T12:41:03;4.72;;;3.60;;
40533;SDS011;26233;51.894;10.192;2023-05-09T12:43:32;3.50;;;3.20;;
40533;SDS011;26233;51.894;10.192;2023-05-09T12:46:00;3.25;;;3.05;;
40533;SDS011;26233;51.894;10.192;2023-05-09T12:48:33;3.97;;;3.33;;
40533;SDS011;26233;51.894;10.192;2023-05-09T12:51:03;3.90;;;3.42;;
40533;SDS011;26233;51.894;10.192;2023-05-09T12:53:30;3.30;;;3.10;;
40533;SDS011;26233;51.894;10.192;2023-05-09T12:56:04;3.25;;;2.95;;
40533;SDS011;26233;51.894;10.192;2023-05-09T12:58:38;3.25;;;3.05;;
40533;SDS011;26233;51.894;10.192;2023-05-09T13:01:06;3.20;;;3.00;;
40533;SDS011;26233;51.894;10.192;2023-05-09T13:03:34;3.42;;;3.22;;
40533;SDS011;26233;51.894;10.192;2023-05-09T13:06:03;3.40;;;3.20;;
40533;SDS011;26233;51.894;10.192;2023-05-09T13:08:37;3.70;;;3.40;;
40533;SDS011;26233;51.894;10.192;2023-05-09T13:11:04;4.03;;;3.63;;
40533;SDS011;26233;51.894;10.192;2023-05-09T13:13:31;3.63;;;3.42;;
40533;SDS011;26233;51.894;10.192;2023-05-09T13:15:58;4.68;;;3.70;;
40533;SDS011;26233;51.894;10.192;2023-05-09T13:18:25;3.92;;;3.63;;
40533;SDS011;26233;51.894;10.192;2023-05-09T13:20:54;3.78;;;3.47;;
40533;SDS011;26233;51.894;10.192;2023-05-09T13:23:21;3.67;;;3.38;;
40533;SDS011;26233;51.894;10.192;2023-05-09T13:25:48;4.57;;;4.18;;
40533;SDS011;26233;51.894;10.192;2023-05-09T13:28:15;3.85;;;3.55;;
40533;SDS011;26233;51.894;10.192;2023-05-09T13:30:42;3.80;;;3.50;;
40533;SDS011;26233;51.894;10.192;2023-05-09T13:33:12;3.50;;;3.30;;
40533;SDS011;26233;51.894;10.192;2023-05-09T13:35:39;3.72;;;3.42;;
40533;SDS011;26233;51.894;10.192;2023-05-09T13:38:09;3.92;;;3.72;;
40533;SDS011;26233;51.894;10.192;2023-05-09T13:40:37;3.60;;;3.40;;
40533;SDS011;26233;51.894;10.192;2023-05-09T13:43:04;4.57;;;3.80;;
40533;SDS011;26233;51.894;10.192;2023-05-09T13:45:31;3.67;;;3.40;;
40533;SDS011;26233;51.894;10.192;2023-05-09T13:47:59;3.90;;;3.60;;
40533;SDS011;26233;51.894;10.192;2023-05-09T13:50:26;4.20;;;3.90;;
40533;SDS011;26233;51.894;10.192;2023-05-09T13:52:53;3.83;;;3.53;;
40533;SDS011;26233;51.894;10.192;2023-05-09T13:55:21;3.67;;;3.38;;
40533;SDS011;26233;51.894;10.192;2023-05-09T13:57:50;3.50;;;3.30;;
40533;SDS011;26233;51.894;10.192;2023-05-09T14:00:17;3.70;;;3.40;;
40533;SDS011;26233;51.894;10.192;2023-05-09T14:02:45;3.58;;;3.38;;
40533;SDS011;26233;51.894;10.192;2023-05-09T14:05:12;3.83;;;3.53;;
40533;SDS011;26233;51.894;10.192;2023-05-09T14:07:39;3.25;;;2.97;;
40533;SDS011;26233;51.894;10.192;2023-05-09T14:10:09;3.03;;;2.83;;
40533;SDS011;26233;51.894;10.192;2023-05-09T14:12:39;3.80;;;3.50;;
40533;SDS011;26233;51.894;10.192;2023-05-09T14:15:08;4.00;;;3.60;;
40533;SDS011;26233;51.894;10.192;2023-05-09T14:17:36;3.28;;;3.08;;
40533;SDS011;26233;51.894;10.192;2023-05-09T14:20:04;3.47;;;3.28;;
40533;SDS011;26233;51.894;10.192;2023-05-09T14:22:32;3.60;;;3.40;;
40533;SDS011;26233;51.894;10.192;2023-05-09T14:24:59;3.60;;;3.40;;
40533;SDS011;26233;51.894;10.192;2023-05-09T14:27:29;3.35;;;3.15;;
40533;SDS011;26233;51.894;10.192;2023-05-09T14:30:02;3.58;;;3.35;;
40533;SDS011;26233;51.894;10.192;2023-05-09T14:32:30;3.30;;;3.10;;
40533;SDS011;26233;51.894;10.192;2023-05-09T14:34:57;3.17;;;2.97;;
40533;SDS011;26233;51.894;10.192;2023-05-09T14:37:24;3.20;;;3.00;;
40533;SDS011;26233;51.894;10.192;2023-05-09T14:39:56;3.35;;;3.15;;
40533;SDS011;26233;51.894;10.192;2023-05-09T14:42:29;3.55;;;3.00;;
40533;SDS011;26233;51.894;10.192;2023-05-09T14:44:56;2.90;;;2.70;;